Flight Track Log - Related Links

Times and Time Zones

All times are in EDT time to prevent confusion due to time zone crossing. See the CHH7133 flight status page for this flight to view local times or setup timezone preferences in your user account.

Time Position Orientation Groundspeed Altitude Reporting Facility
EDT Latitude Longitude Course Direction KTS MPH feet Rate Location/Type
Wed 07:41:00 PM 30.2374 117.0465 271° West  Level Estimated
Wed 07:42:00 PM 30.2363 116.9470 269° West  Level Estimated
Wed 07:43:00 PM 30.2352 116.8474 269° West  Level Estimated
Wed 07:44:00 PM 30.2340 116.7479 269° West  Level Estimated
Wed 07:45:00 PM 30.2327 116.6483 269° West  Level Estimated
Wed 07:46:00 PM 30.2314 116.5488 269° West  Level Estimated
Wed 07:47:00 PM 30.2299 116.4492 269° West  Level Estimated
Wed 07:48:00 PM 30.2285 116.3497 269° West  Level Estimated
Wed 07:49:00 PM 30.2269 116.2502 269° West  Level Estimated
Wed 07:50:00 PM 30.2252 116.1506 269° West  Level Estimated
Wed 07:51:00 PM 30.2235 116.0511 269° West  Level Estimated
Wed 07:52:00 PM 30.2217 115.9516 269° West  Level Estimated
Wed 07:53:00 PM 30.2198 115.8520 269° West  Level Estimated
Wed 07:54:00 PM 30.2178 115.7525 269° West  Level Estimated
Wed 07:55:00 PM 30.2158 115.6530 269° West  Level Estimated
Wed 07:56:00 PM 30.2137 115.5535 269° West  Level Estimated
Wed 07:57:00 PM 30.2115 115.4540 269° West  Level Estimated
Wed 07:58:00 PM 30.2093 115.3545 269° West  Level Estimated
Wed 07:59:00 PM 30.2069 115.2550 268° West  Level Estimated
Wed 08:00:00 PM 30.2045 115.1555 268° West  Level Estimated
Wed 08:01:00 PM 30.2021 115.0560 268° West  Level Estimated
Wed 08:02:00 PM 30.1995 114.9565 268° West  Level Estimated
Wed 08:03:00 PM 30.1969 114.8570 268° West  Level Estimated
Wed 08:04:00 PM 30.1942 114.7576 268° West  Level Estimated
Wed 08:05:00 PM 30.1914 114.6581 268° West  Level Estimated
Wed 08:06:00 PM 30.1885 114.5586 268° West  Level Estimated
Wed 08:07:00 PM 30.1856 114.4592 268° West  Level Estimated
Wed 08:08:00 PM 30.1826 114.3597 268° West  Level Estimated
Wed 08:09:00 PM 30.1795 114.2603 268° West  Level Estimated
Wed 08:10:00 PM 30.1764 114.1609 268° West  Level Estimated
Wed 08:11:00 PM 30.1731 114.0614 268° West  Level Estimated
Wed 08:12:00 PM 30.1698 113.9620 268° West  Level Estimated
Wed 08:13:00 PM 30.1665 113.8626 268° West  Level Estimated
Wed 08:14:00 PM 30.1630 113.7632 268° West  Level Estimated
Wed 08:15:00 PM 30.1595 113.6638 268° West  Level Estimated
Wed 08:16:00 PM 30.1559 113.5644 268° West  Level Estimated
Wed 08:17:00 PM 30.1522 113.4650 268° West  Level Estimated
Wed 08:18:00 PM 30.1484 113.3656 268° West  Level Estimated
Wed 08:19:00 PM 30.1446 113.2662 267° West  Level Estimated
Wed 08:20:00 PM 30.1407 113.1669 267° West  Level Estimated
Wed 08:21:00 PM 30.1367 113.0675 267° West  Level Estimated
Wed 08:22:00 PM 30.1327 112.9682 267° West  Level Estimated
Wed 08:23:00 PM 30.1285 112.8688 267° West  Level Estimated
Wed 08:24:00 PM 30.1243 112.7695 267° West  Level Estimated
Wed 08:25:00 PM 30.1201 112.6702 267° West  Level Estimated
Wed 08:26:00 PM 30.1157 112.5708 267° West  Level Estimated
Wed 08:27:00 PM 30.1113 112.4715 267° West  Level Estimated
Wed 08:28:00 PM 30.1068 112.3722 267° West  Level Estimated
Wed 08:29:00 PM 30.1022 112.2729 267° West  Level Estimated
Wed 08:30:00 PM 30.0975 112.1737 267° West  Level Estimated
Wed 08:31:00 PM 30.0928 112.0744 267° West  Level Estimated
Wed 08:32:00 PM 30.0880 111.9751 267° West  Level Estimated
Wed 08:33:00 PM 30.0831 111.8759 267° West  Level Estimated
Wed 08:34:00 PM 30.0782 111.7766 267° West  Level Estimated
Wed 08:35:00 PM 30.0732 111.6774 267° West  Level Estimated
Wed 08:36:00 PM 30.0681 111.5782 267° West  Level Estimated
Wed 08:37:00 PM 30.0629 111.4790 267° West  Level Estimated
Wed 08:38:00 PM 30.0576 111.3798 267° West  Level Estimated
Wed 08:39:00 PM 30.0523 111.2806 266° West  Level Estimated
Wed 08:40:00 PM 30.0469 111.1814 266° West  Level Estimated
Wed 08:41:00 PM 30.0415 111.0823 266° West  Level Estimated
Wed 08:42:00 PM 30.0359 110.9831 266° West  Level Estimated
Wed 08:43:00 PM 30.0303 110.8839 266° West  Level Estimated
Wed 08:44:00 PM 30.0246 110.7848 266° West  Level Estimated
Wed 08:45:00 PM 30.0188 110.6857 266° West  Level Estimated
Wed 08:46:00 PM 30.0130 110.5866 266° West  Level Estimated
Wed 08:47:00 PM 30.0071 110.4875 266° West  Level Estimated
Wed 08:48:00 PM 30.0011 110.3884 266° West  Level Estimated
Wed 08:49:00 PM 29.9950 110.2893 266° West  Level Estimated
Wed 08:50:00 PM 29.9889 110.1902 266° West  Level Estimated
Wed 08:51:00 PM 29.9827 110.0912 266° West  Level Estimated
Wed 08:52:00 PM 29.9764 109.9922 266° West  Level Estimated
Wed 08:53:00 PM 29.9700 109.8931 266° West  Level Estimated
Wed 08:54:00 PM 29.9636 109.7941 266° West  Level Estimated
Wed 08:55:00 PM 29.9571 109.6951 266° West  Level Estimated
Wed 08:56:00 PM 29.9505 109.5961 266° West  Level Estimated
Wed 08:57:00 PM 29.9438 109.4972 266° West  Level Estimated
Wed 08:58:00 PM 29.9371 109.3982 266° West  Level Estimated
Wed 08:59:00 PM 29.9303 109.2992 265° West  Level Estimated
Wed 09:00:00 PM 29.9234 109.2003 265° West  Level Estimated
Wed 09:01:00 PM 29.9164 109.1014 265° West  Level Estimated
Wed 09:02:00 PM 29.9094 109.0025 265° West  Level Estimated
Wed 09:03:00 PM 29.9023 108.9036 265° West  Level Estimated
Wed 09:04:00 PM 29.8951 108.8047 265° West  Level Estimated
Wed 09:05:00 PM 29.8879 108.7059 265° West  Level Estimated
Wed 09:06:00 PM 29.8806 108.6070 265° West  Level Estimated
Wed 09:07:00 PM 29.8732 108.5082 265° West  Level Estimated
Wed 09:08:00 PM 29.8657 108.4093 265° West  Level Estimated
Wed 09:09:00 PM 29.8582 108.3105 265° West  Level Estimated
Wed 09:10:00 PM 29.8505 108.2118 265° West  Level Estimated
Wed 09:11:00 PM 29.8428 108.1130 265° West  Level Estimated
Wed 09:12:00 PM 29.8351 108.0142 265° West  Level Estimated
Wed 09:13:00 PM 29.8272 107.9155 265° West  Level Estimated
Wed 09:14:00 PM 29.8193 107.8167 265° West  Level Estimated
Wed 09:15:00 PM 29.8113 107.7180 265° West  Level Estimated
Wed 09:16:00 PM 29.8033 107.6193 265° West  Level Estimated
Wed 09:17:00 PM 29.7952 107.5207 265° West  Level Estimated
Wed 09:18:00 PM 29.7869 107.4220 265° West  Level Estimated
Wed 09:19:00 PM 29.7787 107.3233 265° West  Level Estimated
Wed 09:20:00 PM 29.7703 107.2247 264° West  Level Estimated
Wed 09:21:00 PM 29.7619 107.1261 264° West  Level Estimated
Wed 09:22:00 PM 29.7534 107.0275 264° West  Level Estimated
Wed 09:23:00 PM 29.7448 106.9289 264° West  Level Estimated
Wed 09:24:00 PM 29.7362 106.8304 264° West  Level Estimated
Wed 09:25:00 PM 29.7275 106.7318 264° West  Level Estimated
Wed 09:26:00 PM 29.7194 106.6410 264° West  Level Estimated
Wed 09:27:00 PM 29.7194 106.6410 North  Level Estimated
Wed 09:28:00 PM 29.7194 106.6410 North  Level Estimated
Wed 09:29:00 PM 29.7194 106.6410 North  Level Estimated
Wed 09:30:00 PM 29.7194 106.6410 North  Level Estimated
Wed 09:31:00 PM 29.7194 106.6410 North  Level Estimated
Wed 09:32:00 PM 29.7194 106.6410 North  Level Estimated
Wed 09:33:00 PM 29.7194 106.6410 North  Level Estimated
Wed 09:34:00 PM 29.7194 106.6410 North  Level Estimated
Wed 09:35:00 PM 29.7194 106.6410 North  Level Estimated
Wed 09:36:00 PM 29.7194 106.6410 North  Level Estimated
Wed 09:37:00 PM 29.7194 106.6410 North  Level Estimated
Wed 09:38:00 PM 29.7194 106.6410 North  Level Estimated
Wed 09:39:00 PM 29.7194 106.6410 North  Level Estimated
Wed 09:40:00 PM 29.7194 106.6410 North  Level Estimated
Wed 09:41:00 PM 29.7194 106.6410 North  Level Estimated
Wed 09:42:00 PM 29.7194 106.6410 North  Level Estimated

Login

Don't have an account? Register now (free) for customized features, flight alerts, and more!